Currently 73°F in Temecula, California, USA
73°F
73°F / 44°F
2 mph SW
0.00"
Thursday, January 23, 2020 1:06 PM PST

Temecula, California Weather Summary
Last 36 Hours

Temperature Winds Hourly Humidity Dewpoint
Time Report Norm Report Norm Max Gusts Precip. Rpt. Norm Rpt. Norm Pressure
1,2Thu 01:06 PM  72.8°F  66°F  2 mph SW  5 mph  5 mph  0.00"  48%  43%  51°F  43°F  30.01"
Thu 01:00 PM  72.4°F  66°F  2 mph SW  5 mph  6 mph  0.00"  50%  44%  52°F  43°F  30.01"
Thu 12:00 PM  68.2°F  64°F  2 mph W  4 mph  5 mph  0.00"  59%  49%  53°F  43°F  30.08"
Thu 11:00 AM  61.9°F  60°F  3 mph S  3 mph  5 mph  0.00"  73%  58%  53°F  44°F  30.14"
Thu 10:00 AM  54.7°F  54°F  calm  2 mph  4 mph  0.00"  89%  68%  51°F  43°F  30.17"
Thu 09:00 AM  48.9°F  48°F  calm  2 mph  4 mph  0.00"  96%  79%  48°F  42°F  30.17"
Thu 08:00 AM  44.9°F  44°F  calm  1 mph  none  0.00"  98%  85%  44°F  40°F  30.17"
3Thu 07:32 AM  43.8°F  44°F  calm  1 mph  none  ----  98%  85%  43°F  39°F  30.16"
Thu 07:00 AM  44.3°F  43°F  calm  1 mph  none  0.00"  98%  85%  44°F  39°F  30.16"
Thu 06:00 AM  44.2°F  44°F  calm  1 mph  none  0.00"  98%  85%  44°F  39°F  30.15"
Thu 05:00 AM  45.3°F  44°F  calm  1 mph  3 mph  0.00"  98%  84%  45°F  39°F  30.14"
Thu 04:00 AM  45.5°F  45°F  calm  1 mph  4 mph  0.00"  98%  83%  45°F  40°F  30.13"
Thu 03:00 AM  46.2°F  46°F  calm  1 mph  5 mph  0.00"  98%  82%  45°F  40°F  30.14"
Thu 02:00 AM  46.0°F  46°F  3 mph NW  1 mph  6 mph  0.00"  97%  80%  45°F  40°F  30.15"
Thu 01:00 AM  46.9°F  47°F  calm  1 mph  4 mph  0.00"  97%  78%  46°F  41°F  30.15"
Thu 12:00 AM  48.1°F  48°F  3 mph E  1 mph  5 mph  0.00"  96%  77%  47°F  41°F  30.16"
Wed 11:00 PM  49.0°F  50°F  2 mph NW  1 mph  5 mph  0.00"  96%  75%  48°F  42°F  30.16"
Wed 10:00 PM  50.5°F  51°F  calm  1 mph  4 mph  0.00"  96%  73%  49°F  42°F  30.15"
Wed 09:00 PM  51.6°F  52°F  calm  2 mph  4 mph  0.00"  96%  71%  51°F  43°F  30.14"
Wed 08:00 PM  53.0°F  54°F  calm  2 mph  1 mph  0.00"  95%  68%  52°F  43°F  30.13"
Wed 07:00 PM  54.6°F  56°F  calm  2 mph  6 mph  0.00"  93%  64%  53°F  44°F  30.13"
Wed 06:00 PM  56.8°F  59°F  4 mph S  3 mph  none  0.00"  89%  59%  53°F  44°F  30.11"
Wed 05:00 PM  60.9°F  62°F  3 mph SE  3 mph  none  0.00"  79%  53%  54°F  44°F  30.10"
Wed 04:00 PM  63.8°F  66°F  4 mph SW  5 mph  none  0.00"  72%  47%  54°F  44°F  30.08"
Wed 03:00 PM  65.0°F  67°F  calm  5 mph  6 mph  0.00"  68%  43%  54°F  43°F  30.05"
Wed 02:00 PM  64.9°F  68°F  2 mph W  5 mph  7 mph  0.00"  68%  42%  54°F  43°F  30.06"
Wed 01:00 PM  62.6°F  67°F  calm  5 mph  9 mph  0.00"  72%  43%  53°F  43°F  30.09"
Wed 12:00 PM  59.9°F  64°F  calm  4 mph  7 mph  0.00"  78%  49%  53°F  43°F  30.13"
Wed 11:00 AM  56.3°F  60°F  5 mph W  3 mph  5 mph  0.00"  91%  57%  53°F  44°F  30.18"
Wed 10:00 AM  52.4°F  54°F  calm  2 mph  none  0.00"  98%  68%  52°F  43°F  30.21"
Wed 09:00 AM  49.5°F  48°F  calm  1 mph  none  0.00"  100%  79%  49°F  42°F  30.20"
Wed 08:00 AM  48.0°F  44°F  calm  1 mph  none  0.00"  99%  84%  48°F  40°F  30.19"
Wed 07:00 AM  48.2°F  43°F  calm  1 mph  none  0.00"  99%  85%  48°F  39°F  30.18"
Wed 06:00 AM  47.9°F  44°F  calm  1 mph  none  0.00"  99%  84%  48°F  39°F  30.19"
Wed 05:00 AM  48.6°F  44°F  calm  1 mph  none  0.00"  99%  83%  48°F  39°F  30.18"
Wed 04:00 AM  49.5°F  45°F  calm  1 mph  none  0.00"  99%  82%  49°F  40°F  30.18"
Wed 03:00 AM  49.4°F  46°F  calm  1 mph  2 mph  0.00"  99%  81%  49°F  40°F  30.17"
Wed 02:00 AM  49.9°F  46°F  calm  1 mph  4 mph  0.00"  99%  80%  49°F  40°F  30.18"

  1. Current weather data. No green row appears if the current weather data is also the high or low for the current day.
  2. High temperature for the current day.
  3. Low temperature for the current day.

The Temecula weather pages are a service of WeatherCurrents. Temecula, California is located in the Temecula Valley, in southwestern Riverside County, along the Interstate 15 highway. The Temecula Valley's rolling hills are home to the Temecula wine country, vineyards, golf courses, a casino resort, and Old Town Temecula.
Copyright ©2020  WeatherCurrents. All rights reserved. - Submit questions and comments - Privacy Policy

This page automatically refreshes every 10 minutes.